仙台空港の過去48時間の天気

仙台空港 (Sendai)

現在時刻: 2/27 23:06 JST (2/27 14:06 UTC) 以下の時間は現地時間です。

過去48時間のMETAR気象情報
時間 風向 風速(m/s) 視程 気温(℃) 湿度(%) 気圧(hPa) 天気現象
27 21:00 不定 1 10km以上 2 55 1021
27 20:00 西 3 10km以上 1 64 1021
27 19:00 北西 3 10km以上 2 55 1021
27 18:00 北西 4 10km以上 3 56 1020
27 17:00 西 5 10km以上 3 65 1019
27 16:00 北西 8 10km以上 6 42 1018 周辺でしゅう雨
27 15:00 西北西 8 10km以上 6 45 1018 周辺でしゅう雨
27 14:00 北西 9 10km以上 6 49 1017 弱いしゅう雪
27 13:27 3 10km以上 7 45 1017
27 13:14 西北西 5 10km以上 8 42 1017
27 13:00 3 10km以上 6 57 1017
27 12:50 5 10km以上 8 49 1017
27 12:00 不定 1 10km以上 5 61 1017
27 11:00 3 10km以上 5 61 1018
27 10:00 5 10km以上 4 70 1018 弱いしゅう雪
27 09:00 6 10km以上 3 70 1019
27 08:00 3 10km以上 2 75 1018
27 07:00 3 8000m 1 86 1017
27 06:00 3 6000m 1 86 1017 弱いしゅう雪
27 05:30 2 8000m 1 93 1016 弱いしゅう雪
26 21:00 北北西 2 8000m 2 93 1016
26 20:00 不定 1 10km以上 3 87 1016
26 19:00 北東 3 10km以上 3 93 1016 弱いしゅう雨
26 18:00 西 2 10km以上 4 81 1016
26 17:00 不定 1 10km以上 4 81 1016 弱いしゅう雨
26 16:00 3 10km以上 4 87 1016 弱いしゅう雨
26 15:00 北北西 4 6000m 4 87 1016 弱いしゅう雨
26 14:00 4 7000m 4 87 1015 弱いしゅう雨
26 13:00 北北西 4 10km以上 5 81 1016 弱いしゅう雨
26 12:00 北北西 4 10km以上 5 75 1016 弱いしゅう雨
26 11:00 北北西 4 10km以上 5 70 1017
26 10:00 北北西 4 10km以上 5 75 1017
26 09:00 北北西 4 10km以上 4 81 1017
26 08:00 北北西 3 10km以上 4 81 1017 弱い雨
26 07:00 北西 2 10km以上 3 87 1017 弱い雨
26 06:00 北西 2 9000m 3 93 1017 弱い雨 弱い雪
26 05:30 北西 2 10km以上 3 87 1017 弱い雨 弱い雪
RJSS 271200Z VRB02KT 9999 FEW020 SCT050 02/M06 Q1021
RJSS 271100Z 26005KT 220V290 9999 FEW020 01/M05 Q1021
RJSS 271000Z 31006KT 9999 FEW020 02/M06 Q1021
RJSS 270900Z 31007KT 9999 FEW020 03/M05 Q1020
RJSS 270800Z 27010KT 9999 FEW010 SCT030 03/M03 Q1019
RJSS 270700Z 31015KT 9999 VCSH FEW008 SCT030 BKN050 06/M06 Q1018
RJSS 270600Z 30016KT 9999 VCSH FEW004 SCT030 BKN050 06/M05 Q1018
RJSS 270500Z 32017KT 9999 -SHSN FEW006 SCT020 BKN050 06/M04 Q1017
RJSS 270427Z 36006KT 310V040 9999 FEW015 SCT020 BKN050 07/M04 Q1017 RMK 1CU015 4CU020 5CU050 A3004
RJSS 270414Z 30010KT 9999 FEW015 SCT020 BKN050 08/M04 Q1017 RMK 1CU015 4CU020 5CU050 A3005
RJSS 270400Z VRB06KT 9999 FEW015 SCT020 BKN050 06/M02 Q1017
RJSS 270350Z 36010KT 300V050 9999 FEW015 SCT020 BKN050 08/M02 Q1017 RMK 1CU015 3CU020 5CU050 A3005
RJSS 270300Z VRB02KT 9999 FEW010 SCT020 BKN050 05/M02 Q1017
RJSS 270200Z 36006KT 300V060 9999 FEW005 SCT020 BKN050 05/M02 Q1018
RJSS 270100Z 35009KT 9999 -SHSN FEW004 SCT020 BKN050 04/M01 Q1018
RJSS 270000Z 01011KT 9999 FEW008 SCT030 BKN050 03/M02 Q1019
RJSS 262300Z 35006KT 9999 FEW004 SCT030 BKN070 02/M02 Q1018
RJSS 262200Z 35006KT 8000 FEW006 SCT030 BKN070 01/M01 Q1017
RJSS 262100Z 36006KT 6000 -SHSN FEW004 SCT020 BKN030 01/M01 Q1017
RJSS 262030Z 36003KT 330V030 8000 -SHSN FEW004 SCT008 BKN020 01/M00 Q1016 RMK 1ST004 3ST008 6CU020 A3003
RJSS 261200Z 33003KT 8000 FEW004 SCT040 BKN090 02/01 Q1016
RJSS 261100Z VRB02KT 9999 FEW004 BKN100 03/01 Q1016
RJSS 261000Z 05005KT 9999 -SHRA FEW006 SCT030 BKN050 03/02 Q1016
RJSS 260900Z 28003KT 9999 FEW006 SCT010 BKN040 04/01 Q1016
RJSS 260800Z VRB01KT 9999 -SHRA FEW006 SCT015 BKN050 04/01 Q1016
RJSS 260700Z 35005KT 9999 -SHRA FEW008 SCT010 BKN020 04/02 Q1016
RJSS 260600Z 33007KT 6000 -SHRA FEW008 SCT010 BKN020 04/02 Q1016
RJSS 260500Z 35007KT 7000 -SHRA FEW010 BKN020 BKN030 04/02 Q1015
RJSS 260400Z 34007KT 9999 -SHRA FEW008 BKN020 BKN030 05/02 Q1016
RJSS 260300Z 34007KT 9999 -SHRA FEW008 BKN020 BKN030 05/01 Q1016
RJSS 260200Z 34008KT 9999 FEW008 BKN020 BKN030 05/00 Q1017
RJSS 260100Z 34008KT 9999 FEW008 SCT020 BKN030 05/01 Q1017
RJSS 260000Z 33007KT 9999 FEW008 SCT020 BKN030 04/01 Q1017
RJSS 252300Z 33005KT 9999 -RA FEW008 SCT020 BKN030 04/01 Q1017
RJSS 252200Z 32004KT 9999 -RA FEW008 BKN020 BKN030 03/01 Q1017
RJSS 252100Z 31004KT 9000 -RASN FEW010 BKN030 03/02 Q1017
RJSS 252030Z 32004KT 9999 -RASN FEW010 BKN030 03/01 Q1017 RMK 1ST010 7SC030 A3005